Terminal Aerodrome Forecast
Issued by NWS Newport/Morehead City, NC

Home | Current Version | Previous Version | Graphics & Text | Print | Product List | Glossary On
Versions: 1 2 3 4 5 6 7 8 9 10 11 12 13 14 15
000
FTUS42 KMHX 280336 AAA
TAFEWN
TAF AMD
KEWN 280336Z 2804/2824 35007KT P6SM BKN015 OVC035
     FM280900 34009KT P6SM VCSH SCT015 BKN035
     FM281400 31011G20KT P6SM SCT040=

USA.gov is the U.S. government's official web portal to all federal, state and local government web resources and services.